This is the latest recevied weather packets stored in our database for station/object DB0OHA-10. If no packets are shown the sender has not sent any weather packets the latest 10 day(s).
| Time | Temp. | Humidity | Pressure | Rain* | Wind** | Luminosity | Snow |
|---|---|---|---|---|---|---|---|
| 1777923013 | 13.89° C | 1% | 1012.4 hPa | 2.79 mm | - | 0 W/m² | - |
| 1777922113 | 13.89° C | 1% | 1011.8 hPa | 2.03 mm | - | 0 W/m² | - |
| 1777921213 | 13.89° C | 1% | 1011.5 hPa | 1.52 mm | - | 0 W/m² | - |
| 1777920313 | 15° C | 1% | 1011.7 hPa | 0.51 mm | - | 0 W/m² | - |
| 1777919419 | 16.11° C | 1% | 1011.9 hPa | 0 mm | - | 0 W/m² | - |
| 1777919413 | 16.11° C | 1% | 1011.9 hPa | 0 mm | - | 0 W/m² | - |
| 1777918518 | 16.11° C | 28% | 1011.4 hPa | 0 mm | - | 0 W/m² | - |
| 1777918513 | 16.11° C | 28% | 1011.4 hPa | 0 mm | - | 0 W/m² | - |
| 1777917617 | 16.67° C | 51% | 1011.1 hPa | 0 mm | - | 5 W/m² | - |
| 1777917613 | 16.67° C | 51% | 1011.1 hPa | 0 mm | - | 5 W/m² | - |
| 1777916713 | 16.67° C | 57% | 1010.5 hPa | 0 mm | - | 32 W/m² | - |
| 1777915813 | 16.67° C | 58% | 1010.4 hPa | 0 mm | - | 46 W/m² | - |
| 1777914913 | 17.22° C | 61% | 1010.4 hPa | 0 mm | - | 23 W/m² | - |
| 1777914013 | 17.78° C | 61% | 1010.6 hPa | 0 mm | - | 26 W/m² | - |
| 1777913113 | 18.89° C | 62% | 1010.7 hPa | 0 mm | - | 28 W/m² | - |
| 1777912213 | 19.44° C | 60% | 1010.5 hPa | 0 mm | - | 51 W/m² | - |
| 1777911313 | 19.44° C | 60% | 1010.5 hPa | 0 mm | - | 49 W/m² | - |
| 1777910413 | 20° C | 57% | 1010.5 hPa | 0 mm | - | 77 W/m² | - |
| 1777909513 | 20° C | 57% | 1010.6 hPa | 0 mm | - | 111 W/m² | - |
| 1777908613 | 20.56° C | 56% | 1010.5 hPa | 0 mm | - | 144 W/m² | - |
| 1777907713 | 20.56° C | 56% | 1010.6 hPa | 0 mm | - | 128 W/m² | - |
| 1777906813 | 21.67° C | 53% | 1010.6 hPa | 0 mm | - | 489 W/m² | - |
| 1777905913 | 20.56° C | 56% | 1010.9 hPa | 0 mm | - | 167 W/m² | - |
| 1777905013 | 21.11° C | 54% | 1011 hPa | 0 mm | - | 519 W/m² | - |
| 1777904113 | 21.67° C | 53% | 1011.1 hPa | 0 mm | - | 520 W/m² | - |
* Rain latest hour (hover to see other rain measurements)
** Current wind speed in m/s (hover to see current wind gust speed)